sensor_id;sensor_type;location;lat;lon;timestamp;P1;durP1;ratioP1;P2;durP2;ratioP2
8466;SDS011;4270;48.148;11.648;2022-11-14T00:01:24;45.57;;;13.40;;
8466;SDS011;4270;48.148;11.648;2022-11-14T00:03:49;52.00;;;14.67;;
8466;SDS011;4270;48.148;11.648;2022-11-14T00:06:15;44.63;;;14.87;;
8466;SDS011;4270;48.148;11.648;2022-11-14T00:08:40;58.30;;;15.23;;
8466;SDS011;4270;48.148;11.648;2022-11-14T00:11:05;39.63;;;13.17;;
8466;SDS011;4270;48.148;11.648;2022-11-14T00:13:30;43.70;;;13.30;;
8466;SDS011;4270;48.148;11.648;2022-11-14T00:15:56;69.37;;;13.97;;
8466;SDS011;4270;48.148;11.648;2022-11-14T00:18:21;62.53;;;13.77;;
8466;SDS011;4270;48.148;11.648;2022-11-14T00:20:47;46.40;;;14.97;;
8466;SDS011;4270;48.148;11.648;2022-11-14T00:23:12;29.70;;;12.07;;
8466;SDS011;4270;48.148;11.648;2022-11-14T00:25:37;20.90;;;13.33;;
8466;SDS011;4270;48.148;11.648;2022-11-14T00:28:03;30.13;;;12.27;;
8466;SDS011;4270;48.148;11.648;2022-11-14T00:30:28;41.60;;;12.93;;
8466;SDS011;4270;48.148;11.648;2022-11-14T00:32:53;49.20;;;13.30;;
8466;SDS011;4270;48.148;11.648;2022-11-14T00:35:18;42.30;;;13.50;;
8466;SDS011;4270;48.148;11.648;2022-11-14T00:37:43;43.87;;;12.00;;
8466;SDS011;4270;48.148;11.648;2022-11-14T00:40:09;38.10;;;12.70;;
8466;SDS011;4270;48.148;11.648;2022-11-14T00:42:34;27.83;;;12.77;;
8466;SDS011;4270;48.148;11.648;2022-11-14T00:44:59;23.47;;;12.80;;
8466;SDS011;4270;48.148;11.648;2022-11-14T00:47:25;29.37;;;12.33;;
8466;SDS011;4270;48.148;11.648;2022-11-14T00:49:50;39.40;;;13.67;;
8466;SDS011;4270;48.148;11.648;2022-11-14T00:52:15;31.33;;;12.10;;
8466;SDS011;4270;48.148;11.648;2022-11-14T00:54:40;21.97;;;12.57;;
8466;SDS011;4270;48.148;11.648;2022-11-14T00:57:05;23.80;;;11.03;;
8466;SDS011;4270;48.148;11.648;2022-11-14T00:59:30;28.07;;;11.27;;
8466;SDS011;4270;48.148;11.648;2022-11-14T01:01:55;25.93;;;11.97;;
8466;SDS011;4270;48.148;11.648;2022-11-14T01:04:21;18.47;;;11.03;;
8466;SDS011;4270;48.148;11.648;2022-11-14T01:06:46;31.70;;;11.20;;
8466;SDS011;4270;48.148;11.648;2022-11-14T01:09:11;21.80;;;12.33;;
8466;SDS011;4270;48.148;11.648;2022-11-14T01:11:36;37.73;;;11.60;;
8466;SDS011;4270;48.148;11.648;2022-11-14T01:14:04;64.10;;;12.23;;
8466;SDS011;4270;48.148;11.648;2022-11-14T01:16:29;54.80;;;12.23;;
8466;SDS011;4270;48.148;11.648;2022-11-14T01:18:55;19.23;;;10.90;;
8466;SDS011;4270;48.148;11.648;2022-11-14T01:21:20;40.87;;;11.73;;
8466;SDS011;4270;48.148;11.648;2022-11-14T01:23:45;46.50;;;11.80;;
8466;SDS011;4270;48.148;11.648;2022-11-14T01:26:11;33.43;;;10.80;;
8466;SDS011;4270;48.148;11.648;2022-11-14T01:28:37;27.27;;;9.87;;
8466;SDS011;4270;48.148;11.648;2022-11-14T01:31:12;41.37;;;10.73;;
8466;SDS011;4270;48.148;11.648;2022-11-14T01:33:38;42.17;;;10.13;;
8466;SDS011;4270;48.148;11.648;2022-11-14T01:36:04;15.57;;;9.70;;
8466;SDS011;4270;48.148;11.648;2022-11-14T01:38:29;22.77;;;9.57;;
8466;SDS011;4270;48.148;11.648;2022-11-14T01:40:55;31.30;;;9.77;;
8466;SDS011;4270;48.148;11.648;2022-11-14T01:43:27;27.53;;;11.37;;
8466;SDS011;4270;48.148;11.648;2022-11-14T01:48:25;36.23;;;10.57;;
8466;SDS011;4270;48.148;11.648;2022-11-14T01:50:53;28.37;;;10.13;;
8466;SDS011;4270;48.148;11.648;2022-11-14T01:53:19;20.70;;;9.73;;
8466;SDS011;4270;48.148;11.648;2022-11-14T01:55:44;19.37;;;10.70;;
8466;SDS011;4270;48.148;11.648;2022-11-14T01:58:10;18.53;;;10.30;;
8466;SDS011;4270;48.148;11.648;2022-11-14T02:00:35;21.07;;;10.20;;
8466;SDS011;4270;48.148;11.648;2022-11-14T02:03:01;17.30;;;9.87;;
8466;SDS011;4270;48.148;11.648;2022-11-14T02:05:27;16.77;;;10.27;;
8466;SDS011;4270;48.148;11.648;2022-11-14T02:07:52;19.53;;;10.80;;
8466;SDS011;4270;48.148;11.648;2022-11-14T02:10:20;16.20;;;11.20;;
8466;SDS011;4270;48.148;11.648;2022-11-14T02:12:45;16.63;;;10.50;;
8466;SDS011;4270;48.148;11.648;2022-11-14T02:15:11;26.93;;;10.70;;
8466;SDS011;4270;48.148;11.648;2022-11-14T02:17:36;21.80;;;10.40;;
8466;SDS011;4270;48.148;11.648;2022-11-14T02:22:27;22.83;;;11.20;;
8466;SDS011;4270;48.148;11.648;2022-11-14T02:24:52;31.20;;;11.97;;
8466;SDS011;4270;48.148;11.648;2022-11-14T02:27:17;19.17;;;12.03;;
8466;SDS011;4270;48.148;11.648;2022-11-14T02:29:43;16.47;;;10.50;;
8466;SDS011;4270;48.148;11.648;2022-11-14T02:32:08;16.50;;;11.07;;
8466;SDS011;4270;48.148;11.648;2022-11-14T02:34:33;22.67;;;11.60;;
8466;SDS011;4270;48.148;11.648;2022-11-14T02:36:58;20.80;;;10.50;;
8466;SDS011;4270;48.148;11.648;2022-11-14T02:39:24;16.00;;;10.37;;
8466;SDS011;4270;48.148;11.648;2022-11-14T02:41:49;17.87;;;9.67;;
8466;SDS011;4270;48.148;11.648;2022-11-14T02:44:15;23.70;;;9.73;;
8466;SDS011;4270;48.148;11.648;2022-11-14T02:46:40;15.30;;;9.43;;
8466;SDS011;4270;48.148;11.648;2022-11-14T02:49:05;15.37;;;9.40;;
8466;SDS011;4270;48.148;11.648;2022-11-14T02:51:30;19.73;;;10.27;;
8466;SDS011;4270;48.148;11.648;2022-11-14T02:53:56;25.87;;;9.80;;
8466;SDS011;4270;48.148;11.648;2022-11-14T02:56:21;14.33;;;9.60;;
8466;SDS011;4270;48.148;11.648;2022-11-14T02:58:46;16.73;;;9.70;;
8466;SDS011;4270;48.148;11.648;2022-11-14T03:01:11;15.57;;;9.80;;
8466;SDS011;4270;48.148;11.648;2022-11-14T03:03:36;17.73;;;10.00;;
8466;SDS011;4270;48.148;11.648;2022-11-14T03:06:02;15.83;;;10.47;;
8466;SDS011;4270;48.148;11.648;2022-11-14T03:08:27;15.37;;;10.00;;
8466;SDS011;4270;48.148;11.648;2022-11-14T03:10:52;24.07;;;10.70;;
8466;SDS011;4270;48.148;11.648;2022-11-14T03:13:18;18.97;;;9.70;;
8466;SDS011;4270;48.148;11.648;2022-11-14T03:15:43;26.37;;;10.47;;
8466;SDS011;4270;48.148;11.648;2022-11-14T03:18:08;34.00;;;11.50;;
8466;SDS011;4270;48.148;11.648;2022-11-14T03:20:34;17.37;;;10.83;;
8466;SDS011;4270;48.148;11.648;2022-11-14T03:22:59;31.17;;;11.20;;
8466;SDS011;4270;48.148;11.648;2022-11-14T03:25:24;22.57;;;11.60;;
8466;SDS011;4270;48.148;11.648;2022-11-14T03:27:49;21.50;;;11.73;;
8466;SDS011;4270;48.148;11.648;2022-11-14T03:30:14;14.70;;;10.70;;
8466;SDS011;4270;48.148;11.648;2022-11-14T03:32:40;21.27;;;10.70;;
8466;SDS011;4270;48.148;11.648;2022-11-14T03:35:05;31.10;;;11.10;;
8466;SDS011;4270;48.148;11.648;2022-11-14T03:37:30;32.37;;;12.03;;
8466;SDS011;4270;48.148;11.648;2022-11-14T03:39:56;23.00;;;10.80;;
8466;SDS011;4270;48.148;11.648;2022-11-14T03:42:21;19.87;;;10.80;;
8466;SDS011;4270;48.148;11.648;2022-11-14T03:44:46;23.13;;;11.00;;
8466;SDS011;4270;48.148;11.648;2022-11-14T03:47:11;19.10;;;11.33;;
8466;SDS011;4270;48.148;11.648;2022-11-14T03:49:36;21.93;;;10.40;;
8466;SDS011;4270;48.148;11.648;2022-11-14T03:52:02;22.53;;;10.53;;
8466;SDS011;4270;48.148;11.648;2022-11-14T03:54:27;15.50;;;10.87;;
8466;SDS011;4270;48.148;11.648;2022-11-14T03:56:52;21.37;;;11.13;;
8466;SDS011;4270;48.148;11.648;2022-11-14T03:59:17;30.80;;;11.93;;
8466;SDS011;4270;48.148;11.648;2022-11-14T04:01:42;39.87;;;10.77;;
8466;SDS011;4270;48.148;11.648;2022-11-14T04:04:09;16.33;;;11.30;;
8466;SDS011;4270;48.148;11.648;2022-11-14T04:06:35;17.97;;;10.53;;
8466;SDS011;4270;48.148;11.648;2022-11-14T04:09:00;29.90;;;11.73;;
8466;SDS011;4270;48.148;11.648;2022-11-14T04:11:25;24.80;;;11.47;;
8466;SDS011;4270;48.148;11.648;2022-11-14T04:13:50;23.20;;;10.40;;
8466;SDS011;4270;48.148;11.648;2022-11-14T04:16:15;50.63;;;11.03;;
8466;SDS011;4270;48.148;11.648;2022-11-14T04:18:41;22.23;;;11.53;;
8466;SDS011;4270;48.148;11.648;2022-11-14T04:21:06;26.90;;;10.00;;
8466;SDS011;4270;48.148;11.648;2022-11-14T04:23:31;33.73;;;10.70;;
8466;SDS011;4270;48.148;11.648;2022-11-14T04:25:56;30.57;;;10.07;;
8466;SDS011;4270;48.148;11.648;2022-11-14T04:28:21;18.10;;;9.40;;
8466;SDS011;4270;48.148;11.648;2022-11-14T04:30:47;25.40;;;10.00;;
8466;SDS011;4270;48.148;11.648;2022-11-14T04:33:12;16.07;;;10.03;;
8466;SDS011;4270;48.148;11.648;2022-11-14T04:35:37;18.63;;;9.97;;
8466;SDS011;4270;48.148;11.648;2022-11-14T04:38:02;15.77;;;9.53;;
8466;SDS011;4270;48.148;11.648;2022-11-14T04:40:28;35.93;;;9.67;;
8466;SDS011;4270;48.148;11.648;2022-11-14T04:42:53;31.30;;;10.60;;
8466;SDS011;4270;48.148;11.648;2022-11-14T04:45:18;22.30;;;9.17;;
8466;SDS011;4270;48.148;11.648;2022-11-14T04:47:43;19.53;;;9.80;;
8466;SDS011;4270;48.148;11.648;2022-11-14T04:50:09;27.07;;;9.20;;
8466;SDS011;4270;48.148;11.648;2022-11-14T04:52:34;20.60;;;9.80;;
8466;SDS011;4270;48.148;11.648;2022-11-14T04:54:59;15.80;;;9.90;;
8466;SDS011;4270;48.148;11.648;2022-11-14T04:57:25;24.67;;;9.37;;
8466;SDS011;4270;48.148;11.648;2022-11-14T04:59:50;25.93;;;9.90;;
8466;SDS011;4270;48.148;11.648;2022-11-14T05:02:15;17.77;;;8.67;;
8466;SDS011;4270;48.148;11.648;2022-11-14T05:04:41;13.87;;;8.50;;
8466;SDS011;4270;48.148;11.648;2022-11-14T05:07:08;12.13;;;8.90;;
8466;SDS011;4270;48.148;11.648;2022-11-14T05:09:33;20.67;;;8.67;;
8466;SDS011;4270;48.148;11.648;2022-11-14T05:11:59;18.10;;;8.47;;
8466;SDS011;4270;48.148;11.648;2022-11-14T05:14:24;13.00;;;8.97;;
8466;SDS011;4270;48.148;11.648;2022-11-14T05:16:49;11.07;;;8.47;;
8466;SDS011;4270;48.148;11.648;2022-11-14T05:19:14;16.20;;;7.50;;
8466;SDS011;4270;48.148;11.648;2022-11-14T05:21:39;12.30;;;8.20;;
8466;SDS011;4270;48.148;11.648;2022-11-14T05:24:04;13.53;;;7.90;;
8466;SDS011;4270;48.148;11.648;2022-11-14T05:26:30;22.37;;;8.23;;
8466;SDS011;4270;48.148;11.648;2022-11-14T05:28:55;28.37;;;8.20;;
8466;SDS011;4270;48.148;11.648;2022-11-14T05:31:20;15.30;;;7.30;;
8466;SDS011;4270;48.148;11.648;2022-11-14T05:33:45;11.20;;;8.10;;
8466;SDS011;4270;48.148;11.648;2022-11-14T05:36:12;28.93;;;8.77;;
8466;SDS011;4270;48.148;11.648;2022-11-14T05:38:38;23.70;;;8.27;;
8466;SDS011;4270;48.148;11.648;2022-11-14T05:41:07;18.93;;;7.93;;
8466;SDS011;4270;48.148;11.648;2022-11-14T05:43:32;26.73;;;8.60;;
8466;SDS011;4270;48.148;11.648;2022-11-14T05:45:58;16.33;;;8.57;;
8466;SDS011;4270;48.148;11.648;2022-11-14T05:48:24;19.47;;;8.43;;
8466;SDS011;4270;48.148;11.648;2022-11-14T05:50:52;14.40;;;8.80;;
8466;SDS011;4270;48.148;11.648;2022-11-14T05:53:18;14.67;;;8.77;;
8466;SDS011;4270;48.148;11.648;2022-11-14T05:55:43;12.77;;;9.10;;
8466;SDS011;4270;48.148;11.648;2022-11-14T05:58:08;13.00;;;7.73;;
8466;SDS011;4270;48.148;11.648;2022-11-14T06:00:33;18.70;;;8.53;;
8466;SDS011;4270;48.148;11.648;2022-11-14T06:02:58;13.90;;;8.17;;
8466;SDS011;4270;48.148;11.648;2022-11-14T06:05:24;12.30;;;8.27;;
8466;SDS011;4270;48.148;11.648;2022-11-14T06:07:53;19.30;;;7.63;;
8466;SDS011;4270;48.148;11.648;2022-11-14T06:10:19;19.50;;;7.97;;
8466;SDS011;4270;48.148;11.648;2022-11-14T06:12:44;21.10;;;8.30;;
8466;SDS011;4270;48.148;11.648;2022-11-14T06:15:09;21.60;;;7.67;;
8466;SDS011;4270;48.148;11.648;2022-11-14T06:17:34;17.17;;;7.57;;
8466;SDS011;4270;48.148;11.648;2022-11-14T06:19:59;16.60;;;7.20;;
8466;SDS011;4270;48.148;11.648;2022-11-14T06:22:24;14.03;;;7.70;;
8466;SDS011;4270;48.148;11.648;2022-11-14T06:24:50;16.70;;;7.93;;
8466;SDS011;4270;48.148;11.648;2022-11-14T06:27:15;10.97;;;7.60;;
8466;SDS011;4270;48.148;11.648;2022-11-14T06:29:40;13.63;;;7.03;;
8466;SDS011;4270;48.148;11.648;2022-11-14T06:32:05;14.20;;;6.33;;
8466;SDS011;4270;48.148;11.648;2022-11-14T06:34:30;11.23;;;7.43;;
8466;SDS011;4270;48.148;11.648;2022-11-14T06:36:56;9.93;;;6.83;;
8466;SDS011;4270;48.148;11.648;2022-11-14T06:39:21;9.53;;;7.03;;
8466;SDS011;4270;48.148;11.648;2022-11-14T06:41:46;8.80;;;6.70;;
8466;SDS011;4270;48.148;11.648;2022-11-14T06:44:11;7.63;;;6.60;;
8466;SDS011;4270;48.148;11.648;2022-11-14T06:46:38;10.00;;;7.70;;
8466;SDS011;4270;48.148;11.648;2022-11-14T06:49:04;9.77;;;7.00;;
8466;SDS011;4270;48.148;11.648;2022-11-14T06:51:29;8.87;;;6.33;;
8466;SDS011;4270;48.148;11.648;2022-11-14T06:53:54;11.80;;;6.73;;
8466;SDS011;4270;48.148;11.648;2022-11-14T06:56:19;8.30;;;6.40;;
8466;SDS011;4270;48.148;11.648;2022-11-14T06:58:45;9.37;;;6.40;;
8466;SDS011;4270;48.148;11.648;2022-11-14T07:01:12;10.83;;;7.17;;
8466;SDS011;4270;48.148;11.648;2022-11-14T07:03:38;12.30;;;8.33;;
8466;SDS011;4270;48.148;11.648;2022-11-14T07:06:04;10.37;;;7.00;;
8466;SDS011;4270;48.148;11.648;2022-11-14T07:08:30;12.77;;;6.57;;
8466;SDS011;4270;48.148;11.648;2022-11-14T07:11:05;8.63;;;7.20;;
8466;SDS011;4270;48.148;11.648;2022-11-14T07:13:31;8.30;;;7.23;;
8466;SDS011;4270;48.148;11.648;2022-11-14T07:15:56;9.40;;;7.70;;
8466;SDS011;4270;48.148;11.648;2022-11-14T07:18:21;8.80;;;7.10;;
8466;SDS011;4270;48.148;11.648;2022-11-14T07:20:46;11.60;;;6.13;;
8466;SDS011;4270;48.148;11.648;2022-11-14T07:23:12;12.93;;;6.60;;
8466;SDS011;4270;48.148;11.648;2022-11-14T07:25:37;11.03;;;5.90;;
8466;SDS011;4270;48.148;11.648;2022-11-14T07:28:02;9.00;;;6.70;;
8466;SDS011;4270;48.148;11.648;2022-11-14T07:30:28;11.97;;;6.73;;
8466;SDS011;4270;48.148;11.648;2022-11-14T07:32:56;16.50;;;6.20;;
8466;SDS011;4270;48.148;11.648;2022-11-14T07:35:21;10.27;;;6.90;;
8466;SDS011;4270;48.148;11.648;2022-11-14T07:37:47;8.50;;;6.50;;
8466;SDS011;4270;48.148;11.648;2022-11-14T07:40:12;6.60;;;5.37;;
8466;SDS011;4270;48.148;11.648;2022-11-14T07:42:37;9.50;;;5.97;;
8466;SDS011;4270;48.148;11.648;2022-11-14T07:45:02;7.43;;;5.97;;
8466;SDS011;4270;48.148;11.648;2022-11-14T07:47:27;9.53;;;5.87;;
8466;SDS011;4270;48.148;11.648;2022-11-14T07:49:53;7.67;;;6.10;;
8466;SDS011;4270;48.148;11.648;2022-11-14T07:52:18;13.87;;;6.37;;
8466;SDS011;4270;48.148;11.648;2022-11-14T07:54:43;5.93;;;5.13;;
8466;SDS011;4270;48.148;11.648;2022-11-14T07:57:08;8.57;;;5.53;;
8466;SDS011;4270;48.148;11.648;2022-11-14T07:59:33;7.00;;;5.80;;
8466;SDS011;4270;48.148;11.648;2022-11-14T08:01:59;11.27;;;6.47;;
8466;SDS011;4270;48.148;11.648;2022-11-14T08:04:24;14.57;;;6.30;;
8466;SDS011;4270;48.148;11.648;2022-11-14T08:06:50;11.60;;;5.83;;
8466;SDS011;4270;48.148;11.648;2022-11-14T08:09:15;11.40;;;5.73;;
8466;SDS011;4270;48.148;11.648;2022-11-14T08:11:40;8.30;;;6.30;;
8466;SDS011;4270;48.148;11.648;2022-11-14T08:14:15;7.53;;;5.90;;
8466;SDS011;4270;48.148;11.648;2022-11-14T08:16:40;10.03;;;6.40;;
8466;SDS011;4270;48.148;11.648;2022-11-14T08:19:06;8.23;;;6.33;;
8466;SDS011;4270;48.148;11.648;2022-11-14T08:21:32;9.33;;;6.50;;
8466;SDS011;4270;48.148;11.648;2022-11-14T08:23:57;14.20;;;10.30;;
8466;SDS011;4270;48.148;11.648;2022-11-14T08:26:22;10.53;;;7.70;;
8466;SDS011;4270;48.148;11.648;2022-11-14T08:28:51;7.73;;;6.27;;
8466;SDS011;4270;48.148;11.648;2022-11-14T08:31:16;7.97;;;6.70;;
8466;SDS011;4270;48.148;11.648;2022-11-14T08:33:41;9.50;;;7.50;;
8466;SDS011;4270;48.148;11.648;2022-11-14T08:36:06;14.00;;;6.80;;
8466;SDS011;4270;48.148;11.648;2022-11-14T08:38:32;17.00;;;7.40;;
8466;SDS011;4270;48.148;11.648;2022-11-14T08:40:58;8.03;;;6.37;;
8466;SDS011;4270;48.148;11.648;2022-11-14T08:43:24;7.40;;;6.17;;
8466;SDS011;4270;48.148;11.648;2022-11-14T08:45:49;5.20;;;4.70;;
8466;SDS011;4270;48.148;11.648;2022-11-14T08:48:14;5.30;;;4.27;;
8466;SDS011;4270;48.148;11.648;2022-11-14T08:50:39;7.67;;;6.53;;
8466;SDS011;4270;48.148;11.648;2022-11-14T08:53:05;5.33;;;4.83;;
8466;SDS011;4270;48.148;11.648;2022-11-14T08:55:30;6.60;;;4.57;;
8466;SDS011;4270;48.148;11.648;2022-11-14T08:57:55;6.47;;;4.17;;
8466;SDS011;4270;48.148;11.648;2022-11-14T09:00:20;6.30;;;5.80;;
8466;SDS011;4270;48.148;11.648;2022-11-14T09:02:45;5.37;;;4.40;;
8466;SDS011;4270;48.148;11.648;2022-11-14T09:05:11;5.00;;;4.57;;
8466;SDS011;4270;48.148;11.648;2022-11-14T09:07:36;6.53;;;5.70;;
8466;SDS011;4270;48.148;11.648;2022-11-14T09:10:02;6.73;;;5.60;;
8466;SDS011;4270;48.148;11.648;2022-11-14T09:12:27;5.10;;;4.60;;
8466;SDS011;4270;48.148;11.648;2022-11-14T09:14:52;4.90;;;4.50;;
8466;SDS011;4270;48.148;11.648;2022-11-14T09:17:17;5.20;;;4.70;;
8466;SDS011;4270;48.148;11.648;2022-11-14T09:19:43;4.13;;;3.77;;
8466;SDS011;4270;48.148;11.648;2022-11-14T09:22:08;4.90;;;4.50;;
8466;SDS011;4270;48.148;11.648;2022-11-14T09:24:36;4.50;;;4.10;;
8466;SDS011;4270;48.148;11.648;2022-11-14T09:27:01;6.87;;;4.20;;
8466;SDS011;4270;48.148;11.648;2022-11-14T09:29:26;6.60;;;4.70;;
8466;SDS011;4270;48.148;11.648;2022-11-14T09:31:52;4.80;;;4.40;;
8466;SDS011;4270;48.148;11.648;2022-11-14T09:34:18;4.80;;;4.00;;
8466;SDS011;4270;48.148;11.648;2022-11-14T09:36:44;5.20;;;4.70;;
8466;SDS011;4270;48.148;11.648;2022-11-14T09:39:10;5.80;;;5.30;;
8466;SDS011;4270;48.148;11.648;2022-11-14T09:44:20;4.57;;;4.23;;
8466;SDS011;4270;48.148;11.648;2022-11-14T09:46:49;5.67;;;4.90;;
8466;SDS011;4270;48.148;11.648;2022-11-14T09:51:44;8.85;;;8.00;;
8466;SDS011;4270;48.148;11.648;2022-11-14T09:54:22;6.23;;;5.40;;
8466;SDS011;4270;48.148;11.648;2022-11-14T09:56:48;5.40;;;4.73;;
8466;SDS011;4270;48.148;11.648;2022-11-14T09:59:13;6.37;;;5.77;;
8466;SDS011;4270;48.148;11.648;2022-11-14T10:04:26;4.77;;;4.37;;
8466;SDS011;4270;48.148;11.648;2022-11-14T10:06:59;4.90;;;4.40;;
8466;SDS011;4270;48.148;11.648;2022-11-14T10:09:33;4.70;;;4.30;;
8466;SDS011;4270;48.148;11.648;2022-11-14T10:12:03;4.80;;;4.17;;
8466;SDS011;4270;48.148;11.648;2022-11-14T10:19:41;6.00;;;4.60;;
8466;SDS011;4270;48.148;11.648;2022-11-14T10:27:22;4.50;;;4.10;;
8466;SDS011;4270;48.148;11.648;2022-11-14T10:37:34;7.23;;;6.57;;
8466;SDS011;4270;48.148;11.648;2022-11-14T10:42:45;5.20;;;4.70;;
8466;SDS011;4270;48.148;11.648;2022-11-14T10:45:32;6.60;;;4.83;;
8466;SDS011;4270;48.148;11.648;2022-11-14T10:48:01;5.70;;;5.20;;
8466;SDS011;4270;48.148;11.648;2022-11-14T10:50:28;5.77;;;4.43;;
8466;SDS011;4270;48.148;11.648;2022-11-14T10:52:59;4.87;;;4.43;;
8466;SDS011;4270;48.148;11.648;2022-11-14T10:55:26;5.80;;;5.13;;
8466;SDS011;4270;48.148;11.648;2022-11-14T10:57:51;6.27;;;5.67;;
8466;SDS011;4270;48.148;11.648;2022-11-14T11:00:20;6.20;;;5.60;;
8466;SDS011;4270;48.148;11.648;2022-11-14T11:02:50;8.20;;;6.07;;
8466;SDS011;4270;48.148;11.648;2022-11-14T11:05:16;8.30;;;6.47;;
8466;SDS011;4270;48.148;11.648;2022-11-14T11:07:45;8.40;;;6.40;;
8466;SDS011;4270;48.148;11.648;2022-11-14T11:10:29;9.23;;;7.50;;
8466;SDS011;4270;48.148;11.648;2022-11-14T11:13:13;7.87;;;6.70;;
8466;SDS011;4270;48.148;11.648;2022-11-14T11:15:53;8.67;;;7.60;;
8466;SDS011;4270;48.148;11.648;2022-11-14T11:18:27;9.67;;;7.90;;
8466;SDS011;4270;48.148;11.648;2022-11-14T11:23:27;12.10;;;9.70;;
8466;SDS011;4270;48.148;11.648;2022-11-14T11:26:05;13.53;;;10.47;;
8466;SDS011;4270;48.148;11.648;2022-11-14T11:28:33;16.10;;;10.50;;
8466;SDS011;4270;48.148;11.648;2022-11-14T11:30:59;12.23;;;10.17;;
8466;SDS011;4270;48.148;11.648;2022-11-14T11:33:26;14.20;;;9.30;;
8466;SDS011;4270;48.148;11.648;2022-11-14T11:35:52;11.97;;;9.80;;
8466;SDS011;4270;48.148;11.648;2022-11-14T11:38:18;10.10;;;9.10;;
8466;SDS011;4270;48.148;11.648;2022-11-14T11:40:47;10.90;;;8.67;;
8466;SDS011;4270;48.148;11.648;2022-11-14T11:45:59;9.73;;;8.20;;
8466;SDS011;4270;48.148;11.648;2022-11-14T11:48:31;10.43;;;9.30;;
8466;SDS011;4270;48.148;11.648;2022-11-14T11:50:58;9.40;;;8.40;;
8466;SDS011;4270;48.148;11.648;2022-11-14T11:55:54;10.50;;;8.10;;
8466;SDS011;4270;48.148;11.648;2022-11-14T11:58:24;9.00;;;8.10;;
8466;SDS011;4270;48.148;11.648;2022-11-14T12:00:53;8.77;;;7.30;;
8466;SDS011;4270;48.148;11.648;2022-11-14T12:03:22;9.27;;;8.30;;
8466;SDS011;4270;48.148;11.648;2022-11-14T12:05:57;9.80;;;8.80;;
8466;SDS011;4270;48.148;11.648;2022-11-14T12:10:52;8.43;;;7.60;;
8466;SDS011;4270;48.148;11.648;2022-11-14T12:16:27;9.37;;;7.47;;
8466;SDS011;4270;48.148;11.648;2022-11-14T12:21:43;9.83;;;7.50;;
8466;SDS011;4270;48.148;11.648;2022-11-14T12:31:56;8.80;;;7.90;;
8466;SDS011;4270;48.148;11.648;2022-11-14T12:34:32;9.30;;;8.30;;
8466;SDS011;4270;48.148;11.648;2022-11-14T12:36:59;8.77;;;6.70;;
8466;SDS011;4270;48.148;11.648;2022-11-14T12:39:25;8.43;;;7.30;;
8466;SDS011;4270;48.148;11.648;2022-11-14T12:41:59;9.37;;;7.60;;
8466;SDS011;4270;48.148;11.648;2022-11-14T12:49:37;8.60;;;7.60;;
8466;SDS011;4270;48.148;11.648;2022-11-14T12:52:02;9.00;;;7.70;;
8466;SDS011;4270;48.148;11.648;2022-11-14T12:54:44;8.30;;;7.40;;
8466;SDS011;4270;48.148;11.648;2022-11-14T12:57:10;8.67;;;7.67;;
8466;SDS011;4270;48.148;11.648;2022-11-14T13:00:00;6.90;;;6.00;;
8466;SDS011;4270;48.148;11.648;2022-11-14T13:08:07;7.43;;;6.47;;
8466;SDS011;4270;48.148;11.648;2022-11-14T13:10:38;9.23;;;6.73;;
8466;SDS011;4270;48.148;11.648;2022-11-14T13:13:10;6.60;;;6.00;;
8466;SDS011;4270;48.148;11.648;2022-11-14T13:15:58;7.80;;;5.97;;
8466;SDS011;4270;48.148;11.648;2022-11-14T13:18:49;8.10;;;6.40;;
8466;SDS011;4270;48.148;11.648;2022-11-14T13:21:34;7.33;;;6.10;;
8466;SDS011;4270;48.148;11.648;2022-11-14T13:24:12;10.53;;;7.40;;
8466;SDS011;4270;48.148;11.648;2022-11-14T13:26:39;7.37;;;6.60;;
8466;SDS011;4270;48.148;11.648;2022-11-14T13:29:04;8.00;;;5.90;;
8466;SDS011;4270;48.148;11.648;2022-11-14T13:36:52;8.37;;;6.43;;
8466;SDS011;4270;48.148;11.648;2022-11-14T13:46:43;6.03;;;5.40;;
8466;SDS011;4270;48.148;11.648;2022-11-14T13:51:58;8.60;;;5.20;;
8466;SDS011;4270;48.148;11.648;2022-11-14T13:54:23;7.53;;;5.93;;
8466;SDS011;4270;48.148;11.648;2022-11-14T13:57:04;6.00;;;5.40;;
8466;SDS011;4270;48.148;11.648;2022-11-14T14:07:19;8.53;;;6.90;;
8466;SDS011;4270;48.148;11.648;2022-11-14T14:24:59;9.90;;;7.60;;
8466;SDS011;4270;48.148;11.648;2022-11-14T14:27:39;13.50;;;8.00;;
8466;SDS011;4270;48.148;11.648;2022-11-14T14:30:08;7.93;;;6.83;;
8466;SDS011;4270;48.148;11.648;2022-11-14T14:32:34;8.80;;;7.83;;
8466;SDS011;4270;48.148;11.648;2022-11-14T14:35:12;12.23;;;7.63;;
8466;SDS011;4270;48.148;11.648;2022-11-14T14:37:37;12.10;;;7.90;;
8466;SDS011;4270;48.148;11.648;2022-11-14T14:40:23;13.47;;;7.33;;
8466;SDS011;4270;48.148;11.648;2022-11-14T14:42:49;13.60;;;7.63;;
8466;SDS011;4270;48.148;11.648;2022-11-14T14:45:17;7.17;;;6.47;;
8466;SDS011;4270;48.148;11.648;2022-11-14T14:47:43;8.33;;;7.27;;
8466;SDS011;4270;48.148;11.648;2022-11-14T14:50:17;8.73;;;7.53;;
8466;SDS011;4270;48.148;11.648;2022-11-14T14:52:43;10.40;;;7.97;;
8466;SDS011;4270;48.148;11.648;2022-11-14T14:55:17;9.50;;;7.20;;
8466;SDS011;4270;48.148;11.648;2022-11-14T14:57:42;12.37;;;8.73;;
8466;SDS011;4270;48.148;11.648;2022-11-14T15:00:21;10.00;;;7.40;;
8466;SDS011;4270;48.148;11.648;2022-11-14T15:02:46;9.07;;;7.30;;
8466;SDS011;4270;48.148;11.648;2022-11-14T15:05:20;8.77;;;7.23;;
8466;SDS011;4270;48.148;11.648;2022-11-14T15:07:45;10.77;;;7.43;;
8466;SDS011;4270;48.148;11.648;2022-11-14T15:10:23;10.00;;;8.30;;
8466;SDS011;4270;48.148;11.648;2022-11-14T15:12:49;9.83;;;7.80;;
8466;SDS011;4270;48.148;11.648;2022-11-14T15:15:15;11.23;;;8.20;;
8466;SDS011;4270;48.148;11.648;2022-11-14T15:17:42;10.80;;;8.00;;
8466;SDS011;4270;48.148;11.648;2022-11-14T15:20:54;13.10;;;8.33;;
8466;SDS011;4270;48.148;11.648;2022-11-14T15:25:30;11.37;;;8.43;;
8466;SDS011;4270;48.148;11.648;2022-11-14T15:27:56;9.03;;;8.13;;
8466;SDS011;4270;48.148;11.648;2022-11-14T15:30:25;11.43;;;8.27;;
8466;SDS011;4270;48.148;11.648;2022-11-14T15:32:54;10.77;;;8.50;;
8466;SDS011;4270;48.148;11.648;2022-11-14T15:37:59;12.87;;;9.13;;
8466;SDS011;4270;48.148;11.648;2022-11-14T15:40:25;10.90;;;8.83;;
8466;SDS011;4270;48.148;11.648;2022-11-14T15:42:50;13.03;;;9.00;;
8466;SDS011;4270;48.148;11.648;2022-11-14T15:47:46;10.60;;;8.30;;
8466;SDS011;4270;48.148;11.648;2022-11-14T15:52:46;10.57;;;8.33;;
8466;SDS011;4270;48.148;11.648;2022-11-14T15:55:16;13.30;;;8.90;;
8466;SDS011;4270;48.148;11.648;2022-11-14T15:57:41;12.50;;;9.23;;
8466;SDS011;4270;48.148;11.648;2022-11-14T16:00:10;10.50;;;8.67;;
8466;SDS011;4270;48.148;11.648;2022-11-14T16:02:39;15.07;;;9.13;;
8466;SDS011;4270;48.148;11.648;2022-11-14T16:05:05;14.23;;;8.80;;
8466;SDS011;4270;48.148;11.648;2022-11-14T16:07:31;12.70;;;9.60;;
8466;SDS011;4270;48.148;11.648;2022-11-14T16:09:56;14.93;;;9.67;;
8466;SDS011;4270;48.148;11.648;2022-11-14T16:12:21;12.30;;;9.37;;
8466;SDS011;4270;48.148;11.648;2022-11-14T16:14:46;15.00;;;10.53;;
8466;SDS011;4270;48.148;11.648;2022-11-14T16:17:15;13.90;;;10.30;;
8466;SDS011;4270;48.148;11.648;2022-11-14T16:19:41;14.97;;;10.70;;
8466;SDS011;4270;48.148;11.648;2022-11-14T16:22:10;15.13;;;9.53;;
8466;SDS011;4270;48.148;11.648;2022-11-14T16:24:37;14.60;;;10.40;;
8466;SDS011;4270;48.148;11.648;2022-11-14T16:27:02;15.00;;;10.20;;
8466;SDS011;4270;48.148;11.648;2022-11-14T16:29:27;16.87;;;10.40;;
8466;SDS011;4270;48.148;11.648;2022-11-14T16:31:52;17.10;;;9.57;;
8466;SDS011;4270;48.148;11.648;2022-11-14T16:34:20;11.97;;;9.50;;
8466;SDS011;4270;48.148;11.648;2022-11-14T16:36:45;19.30;;;11.17;;
8466;SDS011;4270;48.148;11.648;2022-11-14T16:39:12;15.07;;;10.37;;
8466;SDS011;4270;48.148;11.648;2022-11-14T16:41:38;16.33;;;9.33;;
8466;SDS011;4270;48.148;11.648;2022-11-14T16:44:03;12.63;;;9.87;;